Portada
METAR-TAF:

METAR-TAF

Aeroports :

Dar es Salaam, Tanzània

latitud: 06-52S, longitud: 039-12E, altitud: 55 m

Observació

L'informe es va fer fa 27 minuts, a les 18:00 UTC
Vent 8 kt del Est
Temperatura 25°C
Humitat 83%
Pressió 1018 hPa
Visibilitat 10 km o més
Escasses núvols a una alçada de 1500 ft

METAR: HTDA 251800Z 10008KT 9999 FEW015 25/22 Q1018 NOSIG

Hora: 21:27 (18:27 UTC)

Pronòstic

L'informe es va fer fa 13 hores i 27 minuts, a les 05:00 UTC
Pronòstic vàlid del 25 a les 06 UTC al 26 a les 12 UTC
Vent 15 kt del Sud/Sud-Est
Visibilitat 10 km o més
Cel ennuvolat a una alçada de 2000 ft

TAF: HTDA 250500Z 2506/2612 15015KT 9999 BKN020

Observacions i pronòstics meteorològics de més de 4000 aeroports (METAR i TAF).

Les estacions disponibles són els punts grocs i vermells al mapa.

Posi el ratolí al punt desitjat per veure el nom de l'estació.

Feu clic per veure les observacions i els pronòstics meteorològics.

Per canviar el mapa: feu clic els botons verds amb una creu de color negre per apropar; al botó verd amb un guió per allunyar la imatge; o en les fletxes verdes per a mapes adjacents.


METAR-TAF: